Perry, Georgia
Current Conditions -  °F | °C
As of 5:55 PM on Thursday 23 Oct 2014 (Local Time) from KPXE Reporting Station
Clear Clear  
Wind Chill: 73°   Ceiling: Unl
Heat Index: 73°   Visibility: 10mi
Dew Point: 39°   Wind: 5mph
Humidity: 28%   Direction: 300°WNW
Pressure: 30.02"   Gusts: NA
Location:  32.46°N, 83.73°W
Report Text: KPXE 232155Z AUTO 30004KT 10SM CLR 23/04 A3002 RMK AO2 T02300037
Loading
Personal Weather Stations






























Interactive Weather Map
Tropical Storm Tracking
New forecast layout! Learn more

10-Day Weather Forecast

Advertisements
Track Severe Weather on mobile